createdAt,value
2023-05-01T00:02:01.902Z,98087.41
2023-05-01T00:04:05.136Z,98087.41
2023-05-01T00:06:08.902Z,98088.13
2023-05-01T00:08:12.090Z,98079.44
2023-05-01T00:10:15.092Z,98077.56
2023-05-01T00:12:18.256Z,98082.06
2023-05-01T00:14:21.287Z,98077.81
2023-05-01T00:16:24.354Z,98079.66
2023-05-01T00:18:31.029Z,98078.03
2023-05-01T00:20:34.065Z,98071.94
2023-05-01T00:22:37.040Z,98071.94
2023-05-01T00:24:40.091Z,98065.06
2023-05-01T00:26:43.170Z,98066.81
2023-05-01T00:28:46.287Z,98064.31
2023-05-01T00:30:49.274Z,98069.66
2023-05-01T00:32:52.450Z,98064.44
2023-05-01T00:34:57.733Z,98056.72
2023-05-01T00:37:00.861Z,98054.09
2023-05-01T00:39:03.927Z,98056.81
2023-05-01T00:41:06.949Z,98047.44
2023-05-01T00:43:09.954Z,98049.44
2023-05-01T00:45:14.350Z,98053.84
2023-05-01T00:47:17.437Z,98044.47
2023-05-01T00:49:20.509Z,98047.19
2023-05-01T00:51:25.480Z,98045.50
2023-05-01T00:53:28.911Z,98041.66
2023-05-01T00:55:33.119Z,98038.78
2023-05-01T00:57:36.488Z,98036.81
2023-05-01T00:59:39.688Z,98032.03
2023-05-01T01:01:43.423Z,98025.59
2023-05-01T01:03:46.554Z,98030.19
2023-05-01T01:05:55.283Z,98018.53
2023-05-01T01:08:07.064Z,98020.41
2023-05-01T01:10:19.260Z,98018.44
2023-05-01T01:12:26.290Z,98015.94
2023-05-01T01:14:34.814Z,98014.25
2023-05-01T01:16:43.533Z,98014.38
2023-05-01T01:18:51.666Z,98007.69
2023-05-01T01:20:57.800Z,98008.66
2023-05-01T01:23:15.089Z,98009.25
2023-05-01T01:25:54.374Z,98009.25
2023-05-01T01:28:12.319Z,97998.72
2023-05-01T01:30:44.999Z,98008.09
2023-05-01T01:33:10.314Z,98001.00
2023-05-01T01:35:21.798Z,98012.25
2023-05-01T01:37:27.295Z,98007.16
2023-05-01T01:39:34.740Z,98014.16
2023-05-01T01:41:39.881Z,98010.38
2023-05-01T01:43:46.248Z,98011.09
2023-05-01T01:45:54.185Z,98011.69
2023-05-01T01:47:58.065Z,98013.88
2023-05-01T01:50:04.313Z,98006.41
2023-05-01T01:52:09.379Z,97999.66
2023-05-01T01:54:14.534Z,98004.97
2023-05-01T01:56:19.127Z,98007.94
2023-05-01T01:58:26.223Z,98004.66
2023-05-01T02:00:29.639Z,98002.41
2023-05-01T02:02:33.097Z,97996.97
2023-05-01T02:04:37.316Z,98006.34
2023-05-01T02:06:41.134Z,97998.63
2023-05-01T02:08:48.295Z,97996.50
2023-05-01T02:10:51.892Z,97991.03
2023-05-01T02:12:56.421Z,97985.00
2023-05-01T02:15:00.013Z,97990.59
2023-05-01T02:17:03.703Z,97985.47
2023-05-01T02:19:06.946Z,97983.94
2023-05-01T02:21:10.817Z,97982.28
2023-05-01T02:23:14.120Z,97979.19
2023-05-01T02:25:18.560Z,97985.13
2023-05-01T02:27:24.404Z,97986.59
2023-05-01T02:29:27.485Z,97983.03
2023-05-01T02:31:30.533Z,97978.75
2023-05-01T02:33:33.709Z,97974.44
2023-05-01T02:35:40.800Z,97975.53
2023-05-01T02:37:44.232Z,97974.56
2023-05-01T02:39:47.311Z,97974.91
2023-05-01T02:41:54.255Z,97975.16
2023-05-01T02:44:01.741Z,97971.72
2023-05-01T02:46:05.625Z,97964.81
2023-05-01T02:48:11.380Z,97970.66
2023-05-01T02:50:15.418Z,97969.81
2023-05-01T02:52:19.843Z,97954.25
2023-05-01T02:54:25.880Z,97957.81
2023-05-01T02:56:29.468Z,97957.59
2023-05-01T02:58:34.445Z,97956.50
2023-05-01T03:00:37.431Z,97941.56
2023-05-01T03:02:40.681Z,97955.22
2023-05-01T03:04:44.003Z,97949.00
2023-05-01T03:06:47.238Z,97947.13
2023-05-01T03:08:50.302Z,97936.47
2023-05-01T03:10:53.298Z,97950.22
2023-05-01T03:12:57.416Z,97941.44
2023-05-01T03:15:01.901Z,97947.84
2023-05-01T03:17:07.136Z,97947.25
2023-05-01T03:19:10.505Z,97943.09
2023-05-01T03:21:14.391Z,97935.13
2023-05-01T03:23:17.384Z,97932.63
2023-05-01T03:25:20.511Z,97940.13
2023-05-01T03:27:24.191Z,97932.16
2023-05-01T03:29:27.830Z,97938.03
2023-05-01T03:31:32.526Z,97934.44
2023-05-01T03:33:36.453Z,97936.81
2023-05-01T03:35:39.852Z,97936.22
2023-05-01T03:37:43.068Z,97943.84
2023-05-01T03:39:47.984Z,97941.81
2023-05-01T03:42:09.356Z,97938.97
2023-05-01T03:44:16.782Z,97950.16
2023-05-01T03:46:21.384Z,97939.56
2023-05-01T03:48:26.006Z,97946.44
2023-05-01T03:50:29.023Z,97936.84
2023-05-01T03:52:32.137Z,97928.16
2023-05-01T03:54:35.571Z,97940.88
2023-05-01T03:56:50.298Z,97926.72
2023-05-01T03:58:55.377Z,97920.78
2023-05-01T04:01:00.857Z,97923.28
2023-05-01T04:03:04.248Z,97924.13
2023-05-01T04:05:10.984Z,97930.91
2023-05-01T04:07:16.168Z,97921.50
2023-05-01T04:09:20.959Z,97927.44
2023-05-01T04:11:24.140Z,97923.88
2023-05-01T04:13:27.190Z,97917.94
2023-05-01T04:15:31.219Z,97918.31
2023-05-01T04:17:34.486Z,97922.91
2023-05-01T04:19:37.993Z,97923.03
2023-05-01T04:21:42.430Z,97909.38
2023-05-01T04:23:45.547Z,97916.41
2023-05-01T04:25:48.540Z,97921.75
2023-05-01T04:27:53.863Z,97912.34
2023-05-01T04:29:57.843Z,97919.84
2023-05-01T04:32:01.715Z,97919.38
2023-05-01T04:34:04.991Z,97917.47
2023-05-01T04:36:08.667Z,97913.91
2023-05-01T04:38:13.053Z,97919.59
2023-05-01T04:40:17.682Z,97917.91
2023-05-01T04:42:20.724Z,97919.84
2023-05-01T04:44:23.880Z,97916.28
2023-05-01T04:46:27.285Z,97916.38
2023-05-01T04:48:30.349Z,97919.25
2023-05-01T04:50:33.383Z,97922.09
2023-05-01T04:52:36.934Z,97920.19
2023-05-01T04:54:42.097Z,97919.94
2023-05-01T04:56:45.326Z,97929.81
2023-05-01T04:58:48.446Z,97923.28
2023-05-01T05:00:55.747Z,97930.75
2023-05-01T05:03:00.321Z,97937.41
2023-05-01T05:05:03.471Z,97939.91
2023-05-01T05:07:09.184Z,97934.53
2023-05-01T05:09:45.463Z,97936.91
2023-05-01T05:11:48.827Z,97932.53
2023-05-01T05:13:59.405Z,97933.34
2023-05-01T05:16:02.622Z,97940.38
2023-05-01T05:18:06.154Z,97941.22
2023-05-01T05:20:10.281Z,97944.28
2023-05-01T05:22:13.517Z,97934.31
2023-05-01T05:24:36.792Z,97944.88
2023-05-01T05:26:41.561Z,97944.75
2023-05-01T05:28:45.112Z,97940.84
2023-05-01T05:30:49.114Z,97942.88
2023-05-01T05:32:56.004Z,97946.66
2023-05-01T05:34:59.350Z,97939.63
2023-05-01T05:37:03.482Z,97941.22
2023-05-01T05:39:06.822Z,97947.75
2023-05-01T05:41:10.159Z,97940.47
2023-05-01T05:43:15.310Z,97938.31
2023-05-01T05:45:18.726Z,97937.22
2023-05-01T05:47:22.454Z,97936.16
2023-05-01T05:49:25.633Z,97942.94
2023-05-01T05:51:28.841Z,97934.00
2023-05-01T05:53:32.816Z,97937.34
2023-05-01T05:55:35.888Z,97929.63
2023-05-01T05:57:40.966Z,97933.88
2023-05-01T05:59:45.759Z,97936.50
2023-05-01T06:01:50.726Z,97937.34
2023-05-01T06:03:53.969Z,97928.50
2023-05-01T06:05:59.063Z,97929.25
2023-05-01T06:08:02.235Z,97933.63
2023-05-01T06:10:05.678Z,97936.50
2023-05-01T06:12:09.026Z,97934.47
2023-05-01T06:14:12.693Z,97938.75
2023-05-01T06:16:17.198Z,97944.94
2023-05-01T06:18:20.588Z,97936.13
2023-05-01T06:20:23.933Z,97935.06
2023-05-01T06:22:27.434Z,97933.13
2023-05-01T06:24:49.136Z,97938.38
2023-05-01T06:26:52.474Z,97929.94
2023-05-01T06:28:55.794Z,97941.13
2023-05-01T06:30:59.453Z,97934.34
2023-05-01T06:33:04.896Z,97929.25
2023-05-01T06:35:09.708Z,97923.16
2023-05-01T06:37:12.995Z,97935.66
2023-05-01T06:39:16.228Z,97929.50
2023-05-01T06:41:19.576Z,97940.91
2023-05-01T06:43:22.835Z,97941.16
2023-05-01T06:45:26.277Z,97935.09
2023-05-01T06:47:29.431Z,97937.47
2023-05-01T06:49:33.940Z,97943.53
2023-05-01T06:51:37.676Z,97947.22
2023-05-01T06:53:41.635Z,97941.16
2023-05-01T06:55:44.788Z,97950.44
2023-05-01T06:57:47.924Z,97944.22
2023-05-01T06:59:51.029Z,97939.09
2023-05-01T07:01:54.463Z,97946.16
2023-05-01T07:03:57.649Z,97950.31
2023-05-01T07:06:02.220Z,97956.81
2023-05-01T07:08:06.617Z,97955.50
2023-05-01T07:10:10.416Z,97961.06
2023-05-01T07:12:13.588Z,97958.78
2023-05-01T07:14:16.754Z,97959.00
2023-05-01T07:16:20.733Z,97965.25
2023-05-01T07:18:26.420Z,97969.19
2023-05-01T07:20:30.257Z,97973.09
2023-05-01T07:22:34.871Z,97973.81
2023-05-01T07:24:38.008Z,97966.25
2023-05-01T07:26:41.019Z,97972.06
2023-05-01T07:28:44.055Z,97975.53
2023-05-01T07:30:47.200Z,97977.31
2023-05-01T07:32:50.667Z,97971.13
2023-05-01T07:34:54.878Z,97973.75
2023-05-01T07:36:57.932Z,97971.56
2023-05-01T07:39:02.296Z,97969.41
2023-05-01T07:41:05.574Z,97972.97
2023-05-01T07:43:11.249Z,97976.16
2023-05-01T07:45:14.761Z,97973.88
2023-05-01T07:47:17.846Z,97976.00
2023-05-01T07:49:21.003Z,97969.38
2023-05-01T07:51:24.371Z,97972.13
2023-05-01T07:53:27.539Z,97973.13
2023-05-01T07:55:32.112Z,97970.97
2023-05-01T07:57:36.382Z,97965.59
2023-05-01T07:59:39.560Z,97966.03
2023-05-01T08:01:42.725Z,97970.63
2023-05-01T08:03:46.991Z,97970.94
2023-05-01T08:05:52.269Z,97973.03
2023-05-01T08:07:55.540Z,97964.09
2023-05-01T08:10:00.471Z,97964.78
2023-05-01T08:12:05.960Z,97964.38
2023-05-01T08:14:09.281Z,97969.50
2023-05-01T08:16:12.586Z,97975.91
2023-05-01T08:18:20.439Z,97974.78
2023-05-01T08:20:23.837Z,97967.75
2023-05-01T08:22:26.915Z,97975.38
2023-05-01T08:24:30.476Z,97972.63
2023-05-01T08:26:33.685Z,97969.59
2023-05-01T08:28:38.624Z,97968.31
2023-05-01T08:30:41.820Z,97964.63
2023-05-01T08:32:44.979Z,97962.53
2023-05-01T08:34:48.206Z,97965.47
2023-05-01T08:36:51.369Z,97964.25
2023-05-01T08:38:54.530Z,97964.09
2023-05-01T08:40:59.691Z,97965.78
2023-05-01T08:43:03.203Z,97964.41
2023-05-01T08:45:10.241Z,97960.56
2023-05-01T08:47:17.164Z,97964.16
2023-05-01T08:49:21.075Z,97964.59
2023-05-01T08:51:25.337Z,97969.31
2023-05-01T08:53:28.712Z,97973.59
2023-05-01T08:55:32.290Z,97959.22
2023-05-01T08:57:37.598Z,97966.69
2023-05-01T08:59:42.041Z,97971.94
2023-05-01T09:01:47.987Z,97963.22
2023-05-01T09:03:52.562Z,97960.59
2023-05-01T09:05:55.956Z,97962.25
2023-05-01T09:07:59.829Z,97964.88
2023-05-01T09:10:03.247Z,97967.50
2023-05-01T09:12:13.151Z,97968.31
2023-05-01T09:14:17.272Z,97964.34
2023-05-01T09:16:20.445Z,97960.31
2023-05-01T09:18:25.426Z,97966.56
2023-05-01T09:20:29.822Z,97972.81
2023-05-01T09:22:34.089Z,97974.91
2023-05-01T09:24:37.290Z,97970.09
2023-05-01T09:26:41.946Z,97973.66
2023-05-01T09:28:46.288Z,97974.53
2023-05-01T09:30:49.490Z,97969.69
2023-05-01T09:33:05.702Z,97975.22
2023-05-01T09:35:14.738Z,97975.34
2023-05-01T09:37:28.434Z,97985.03
2023-05-01T09:39:32.326Z,97980.91
2023-05-01T09:41:36.610Z,97983.66
2023-05-01T09:43:40.350Z,97986.13
2023-05-01T09:45:43.876Z,97985.00
2023-05-01T09:47:47.720Z,97989.44
2023-05-01T09:49:50.913Z,97981.53
2023-05-01T09:52:12.235Z,97984.19
2023-05-01T09:54:20.886Z,97984.19
2023-05-01T09:56:24.108Z,97990.53
2023-05-01T09:58:30.051Z,97984.66
2023-05-01T10:00:33.584Z,97976.88
2023-05-01T10:02:39.300Z,97964.91
2023-05-01T10:04:43.267Z,97979.91
2023-05-01T10:06:48.075Z,97974.94
2023-05-01T10:08:52.618Z,97970.75
2023-05-01T10:11:02.658Z,97969.91
2023-05-01T10:13:15.091Z,97964.50
2023-05-01T10:15:25.555Z,97967.84
2023-05-01T10:17:30.051Z,97960.66
2023-05-01T10:19:33.706Z,97958.59
2023-05-01T10:21:37.056Z,97958.84
2023-05-01T10:23:40.298Z,97965.00
2023-05-01T10:25:45.450Z,97964.06
2023-05-01T10:27:49.135Z,97973.81
2023-05-01T10:29:54.236Z,97963.41
2023-05-01T10:31:57.780Z,97971.69
2023-05-01T10:34:01.751Z,97972.88
2023-05-01T10:36:05.908Z,97974.13
2023-05-01T10:38:11.275Z,97979.16
2023-05-01T10:40:47.313Z,97976.69
2023-05-01T10:43:15.915Z,97974.63
2023-05-01T10:45:32.403Z,97982.19
2023-05-01T10:47:45.841Z,97971.47
2023-05-01T10:50:05.977Z,97965.66
2023-05-01T10:52:09.253Z,97973.56
2023-05-01T10:54:34.769Z,97975.66
2023-05-01T10:56:45.315Z,97960.31
2023-05-01T10:58:59.366Z,97961.69
2023-05-01T11:01:33.503Z,97955.09
2023-05-01T11:03:36.853Z,97958.28
2023-05-01T11:06:07.600Z,97953.69
2023-05-01T11:08:32.451Z,97951.66
2023-05-01T11:10:35.676Z,97954.06
2023-05-01T11:12:53.520Z,97953.31
2023-05-01T11:15:08.090Z,97943.31
2023-05-01T11:17:11.691Z,97948.72
2023-05-01T11:19:46.152Z,97944.78
2023-05-01T11:21:50.002Z,97945.09
2023-05-01T11:23:53.253Z,97935.81
2023-05-01T11:26:04.889Z,97937.69
2023-05-01T11:28:09.849Z,97933.22
2023-05-01T11:30:14.019Z,97932.88
2023-05-01T11:32:19.947Z,97934.69
2023-05-01T11:34:23.542Z,97924.94
2023-05-01T11:36:27.158Z,97930.31
2023-05-01T11:38:30.730Z,97930.94
2023-05-01T11:40:35.095Z,97919.63
2023-05-01T11:42:38.507Z,97929.09
2023-05-01T11:44:43.196Z,97926.94
2023-05-01T11:46:46.278Z,97921.75
2023-05-01T11:48:50.493Z,97924.22
2023-05-01T11:50:53.570Z,97922.16
2023-05-01T11:52:56.899Z,97920.78
2023-05-01T11:55:00.224Z,97922.31
2023-05-01T11:57:03.569Z,97917.38
2023-05-01T11:59:14.059Z,97917.75
2023-05-01T12:01:18.675Z,97917.50
2023-05-01T12:03:23.326Z,97918.56
2023-05-01T12:05:27.008Z,97926.75
2023-05-01T12:07:30.213Z,97923.34
2023-05-01T12:09:33.861Z,97918.78
2023-05-01T12:11:37.703Z,97920.38
2023-05-01T12:13:41.943Z,97913.97
2023-05-01T12:15:47.244Z,97913.56
2023-05-01T12:17:52.361Z,97922.41
2023-05-01T12:19:55.509Z,97925.56
2023-05-01T12:22:08.089Z,97927.97
2023-05-01T12:24:12.009Z,97923.69
2023-05-01T12:26:18.511Z,97928.00
2023-05-01T12:28:21.658Z,97929.03
2023-05-01T12:30:26.755Z,97930.34
2023-05-01T12:32:32.431Z,97923.91
2023-05-01T12:34:37.090Z,97923.22
2023-05-01T12:36:41.387Z,97923.75
2023-05-01T12:38:56.825Z,97930.13
2023-05-01T12:41:01.908Z,97927.31
2023-05-01T12:43:05.236Z,97920.78
2023-05-01T12:45:12.607Z,97924.91
2023-05-01T12:47:16.105Z,97925.59
2023-05-01T12:49:19.826Z,97917.78
2023-05-01T12:51:41.714Z,97919.78
2023-05-01T12:53:45.595Z,97921.81
2023-05-01T12:55:50.277Z,97912.59
2023-05-01T12:57:54.764Z,97917.41
2023-05-01T13:00:01.745Z,97920.91
2023-05-01T13:02:10.907Z,97914.97
2023-05-01T13:04:14.118Z,97915.28
2023-05-01T13:06:17.306Z,97914.00
2023-05-01T13:08:29.655Z,97915.47
2023-05-01T13:10:33.187Z,97910.16
2023-05-01T13:12:45.208Z,97909.34
2023-05-01T13:14:48.662Z,97908.53
2023-05-01T13:16:52.970Z,97910.34
2023-05-01T13:18:56.362Z,97909.03
2023-05-01T13:21:09.672Z,97905.88
2023-05-01T13:23:13.560Z,97897.13
2023-05-01T13:25:20.673Z,97903.72
2023-05-01T13:27:24.055Z,97907.19
2023-05-01T13:29:28.397Z,97907.19
2023-05-01T13:31:31.871Z,97896.13
2023-05-01T13:33:34.993Z,97903.41
2023-05-01T13:35:39.168Z,97901.09
2023-05-01T13:37:42.506Z,97893.47
2023-05-01T13:39:47.657Z,97896.44
2023-05-01T13:41:55.269Z,97900.94
2023-05-01T13:43:58.799Z,97890.84
2023-05-01T13:46:02.036Z,97889.19
2023-05-01T13:48:06.128Z,97888.53
2023-05-01T13:50:14.647Z,97885.88
2023-05-01T13:52:19.377Z,97888.53
2023-05-01T13:54:22.443Z,97895.94
2023-05-01T13:56:26.523Z,97903.41
2023-05-01T13:58:31.251Z,97898.75
2023-05-01T14:00:34.382Z,97905.06
2023-05-01T14:02:45.366Z,97899.09
2023-05-01T14:04:48.879Z,97901.75
2023-05-01T14:06:52.318Z,97898.44
2023-05-01T14:08:59.858Z,97897.63
2023-05-01T14:11:05.895Z,97895.78
2023-05-01T14:13:11.850Z,97891.31
2023-05-01T14:15:16.288Z,97893.78
2023-05-01T14:17:19.542Z,97887.50
2023-05-01T14:19:22.968Z,97888.47
2023-05-01T14:21:28.462Z,97885.19
2023-05-01T14:23:33.414Z,97895.91
2023-05-01T14:25:37.469Z,97890.47
2023-05-01T14:27:40.720Z,97891.75
2023-05-01T14:29:44.736Z,97888.63
2023-05-01T14:31:52.560Z,97891.94
2023-05-01T14:33:59.919Z,97884.03
2023-05-01T14:36:03.049Z,97895.59
2023-05-01T14:38:13.018Z,97892.13
2023-05-01T14:40:16.308Z,97893.97
2023-05-01T14:42:19.405Z,97891.00
2023-05-01T14:44:24.392Z,97891.47
2023-05-01T14:46:31.135Z,97888.34
2023-05-01T14:48:37.815Z,97894.81
2023-05-01T14:50:41.201Z,97891.97
2023-05-01T14:52:44.352Z,97889.53
2023-05-01T14:54:48.331Z,97893.81
2023-05-01T14:56:51.512Z,97898.44
2023-05-01T14:58:56.766Z,97883.56
2023-05-01T15:01:00.355Z,97888.47
2023-05-01T15:03:05.083Z,97887.66
2023-05-01T15:05:10.300Z,97895.09
2023-05-01T15:07:13.678Z,97892.94
2023-05-01T15:09:16.807Z,97895.38
2023-05-01T15:11:21.044Z,97900.03
2023-05-01T15:13:24.068Z,97890.78
2023-05-01T15:15:27.602Z,97892.94
2023-05-01T15:17:32.453Z,97891.47
2023-05-01T15:19:35.954Z,97889.63
2023-05-01T15:21:41.081Z,97899.56
2023-05-01T15:23:45.319Z,97890.47
2023-05-01T15:25:50.594Z,97898.28
2023-05-01T15:27:53.705Z,97897.09
2023-05-01T15:29:57.418Z,97894.84
2023-05-01T15:32:10.813Z,97897.16
2023-05-01T15:34:15.028Z,97895.00
2023-05-01T15:36:18.091Z,97894.84
2023-05-01T15:38:22.520Z,97900.66
2023-05-01T15:40:25.621Z,97897.84
2023-05-01T15:42:28.658Z,97894.91
2023-05-01T15:44:32.118Z,97887.81
2023-05-01T15:46:35.391Z,97897.38
2023-05-01T15:48:38.647Z,97897.38
2023-05-01T15:50:41.920Z,97897.22
2023-05-01T15:52:45.022Z,97899.03
2023-05-01T15:54:49.591Z,97893.75
2023-05-01T15:56:52.648Z,97899.38
2023-05-01T15:58:56.330Z,97901.50
2023-05-01T16:00:59.561Z,97893.34
2023-05-01T16:03:03.212Z,97898.13
2023-05-01T16:05:07.084Z,97892.38
2023-05-01T16:07:10.717Z,97904.66
2023-05-01T16:09:14.071Z,97905.66
2023-05-01T16:11:18.608Z,97898.41
2023-05-01T16:13:21.625Z,97896.72
2023-05-01T16:15:24.682Z,97903.84
2023-05-01T16:17:27.912Z,97899.69
2023-05-01T16:19:32.106Z,97894.91
2023-05-01T16:21:35.151Z,97900.34
2023-05-01T16:23:39.589Z,97899.69
2023-05-01T16:25:43.459Z,97904.06
2023-05-01T16:27:47.932Z,97897.31
2023-05-01T16:29:51.324Z,97897.97
2023-05-01T16:31:54.444Z,97896.44
2023-05-01T16:33:57.586Z,97896.94
2023-05-01T16:36:00.768Z,97906.00
2023-05-01T16:38:03.872Z,97898.06
2023-05-01T16:40:10.312Z,97903.31
2023-05-01T16:42:14.088Z,97907.13
2023-05-01T16:44:20.375Z,97903.47
2023-05-01T16:46:23.527Z,97900.16
2023-05-01T16:48:26.723Z,97904.75
2023-05-01T16:50:29.827Z,97905.06
2023-05-01T16:52:32.851Z,97902.44
2023-05-01T16:54:36.726Z,97909.53
2023-05-01T16:56:39.980Z,97902.59
2023-05-01T16:58:43.867Z,97914.97
2023-05-01T17:00:48.229Z,97910.50
2023-05-01T17:02:53.412Z,97914.16
2023-05-01T17:04:56.503Z,97914.00
2023-05-01T17:06:59.614Z,97919.28
2023-05-01T17:09:02.704Z,97924.56
2023-05-01T17:11:07.233Z,97919.13
2023-05-01T17:13:10.353Z,97929.31
2023-05-01T17:15:13.661Z,97925.19
2023-05-01T17:17:18.624Z,97927.47
2023-05-01T17:19:21.796Z,97932.38
2023-05-01T17:21:25.130Z,97939.28
2023-05-01T17:23:29.081Z,97927.38
2023-05-01T17:25:32.230Z,97933.94
2023-05-01T17:27:35.442Z,97932.63
2023-05-01T17:29:39.233Z,97932.22
2023-05-01T17:31:42.677Z,97934.78
2023-05-01T17:33:47.395Z,97939.97
2023-05-01T17:35:50.569Z,97934.03
2023-05-01T17:37:53.921Z,97933.50
2023-05-01T17:39:57.577Z,97937.41
2023-05-01T17:42:02.406Z,97945.97
2023-05-01T17:44:05.692Z,97941.28
2023-05-01T17:46:09.057Z,97940.63
2023-05-01T17:48:12.517Z,97949.25
2023-05-01T17:50:17.128Z,97943.09
2023-05-01T17:52:20.170Z,97938.97
2023-05-01T17:54:23.211Z,97947.72
2023-05-01T17:56:27.116Z,97958.16
2023-05-01T17:58:30.336Z,97953.13
2023-05-01T18:00:33.649Z,97954.38
2023-05-01T18:02:36.909Z,97956.72
2023-05-01T18:04:40.531Z,97953.97
2023-05-01T18:06:45.059Z,97955.78
2023-05-01T18:08:49.178Z,97954.41
2023-05-01T18:10:52.371Z,97958.00
2023-05-01T18:12:55.747Z,97953.56
2023-05-01T18:14:59.110Z,97954.28
2023-05-01T18:17:02.356Z,97969.06
2023-05-01T18:19:05.594Z,97967.53
2023-05-01T18:21:08.810Z,97970.84
2023-05-01T18:23:13.455Z,97968.81
2023-05-01T18:25:17.271Z,97982.50
2023-05-01T18:27:20.495Z,97982.91
2023-05-01T18:29:23.678Z,97987.22
2023-05-01T18:31:26.869Z,97992.47
2023-05-01T18:33:30.125Z,98001.06
2023-05-01T18:35:33.625Z,97997.47
2023-05-01T18:37:36.816Z,98004.69
2023-05-01T18:39:41.291Z,98008.28
2023-05-01T18:41:44.594Z,98003.16
2023-05-01T18:43:47.756Z,98004.25
2023-05-01T18:45:51.009Z,98004.25
2023-05-01T18:47:54.317Z,98004.53
2023-05-01T18:49:57.675Z,98022.13
2023-05-01T18:52:01.121Z,98027.66
2023-05-01T18:54:05.631Z,98033.88
2023-05-01T18:56:10.354Z,98037.63
2023-05-01T18:58:13.524Z,98035.00
2023-05-01T19:00:17.369Z,98038.72
2023-05-01T19:02:20.572Z,98044.13
2023-05-01T19:04:23.864Z,98047.03
2023-05-01T19:06:27.042Z,98056.91
2023-05-01T19:08:31.543Z,98047.47
2023-05-01T19:10:36.689Z,98059.38
2023-05-01T19:12:42.186Z,98058.28
2023-05-01T19:14:45.533Z,98061.19
2023-05-01T19:16:49.043Z,98057.16
2023-05-01T19:18:52.227Z,98059.09
2023-05-01T19:20:55.339Z,98059.25
2023-05-01T19:22:58.538Z,98059.47
2023-05-01T19:25:01.681Z,98052.38
2023-05-01T19:27:04.836Z,98056.91
2023-05-01T19:29:09.573Z,98057.19
2023-05-01T19:31:14.500Z,98064.78
2023-05-01T19:33:17.981Z,98062.88
2023-05-01T19:35:21.362Z,98063.44
2023-05-01T19:37:24.574Z,98061.22
2023-05-01T19:39:28.963Z,98062.91
2023-05-01T19:41:32.061Z,98062.34
2023-05-01T19:43:35.150Z,98064.13
2023-05-01T19:45:39.559Z,98076.31
2023-05-01T19:47:42.787Z,98073.53
2023-05-01T19:49:46.031Z,98075.47
2023-05-01T19:51:49.187Z,98082.50
2023-05-01T19:53:52.272Z,98080.03
2023-05-01T19:55:55.483Z,98089.84
2023-05-01T19:57:58.617Z,98090.63
2023-05-01T20:00:01.875Z,98093.50
2023-05-01T20:02:14.539Z,98090.31
2023-05-01T20:04:17.794Z,98095.28
2023-05-01T20:06:21.293Z,98097.91
2023-05-01T20:08:24.536Z,98102.03
2023-05-01T20:10:27.701Z,98101.66
2023-05-01T20:12:32.328Z,98103.72
2023-05-01T20:14:35.376Z,98104.66
2023-05-01T20:16:38.700Z,98112.94
2023-05-01T20:18:43.154Z,98106.44
2023-05-01T20:20:46.281Z,98117.34
2023-05-01T20:22:53.129Z,98118.69
2023-05-01T20:24:56.356Z,98120.75
2023-05-01T20:26:59.750Z,98124.56
2023-05-01T20:29:03.189Z,98117.94
2023-05-01T20:31:09.484Z,98125.81
2023-05-01T20:33:13.960Z,98127.59
2023-05-01T20:35:18.852Z,98128.69
2023-05-01T20:37:21.968Z,98137.66
2023-05-01T20:39:25.255Z,98136.22
2023-05-01T20:41:29.216Z,98138.03
2023-05-01T20:43:32.327Z,98141.03
2023-05-01T20:45:35.614Z,98138.94
2023-05-01T20:47:39.129Z,98136.69
2023-05-01T20:49:42.211Z,98151.00
2023-05-01T20:51:46.639Z,98146.31
2023-05-01T20:53:49.735Z,98141.56
2023-05-01T20:55:52.879Z,98140.25
2023-05-01T20:57:56.074Z,98141.38
2023-05-01T21:00:00.901Z,98148.44
2023-05-01T21:02:05.258Z,98145.09
2023-05-01T21:04:08.548Z,98143.44
2023-05-01T21:06:11.890Z,98146.06
2023-05-01T21:08:16.369Z,98156.56
2023-05-01T21:10:19.610Z,98151.44
2023-05-01T21:12:22.806Z,98151.44
2023-05-01T21:14:25.886Z,98159.31
2023-05-01T21:16:28.968Z,98158.44
2023-05-01T21:18:34.460Z,98154.31
2023-05-01T21:20:37.562Z,98151.94
2023-05-01T21:22:41.519Z,98152.28
2023-05-01T21:24:46.461Z,98151.81
2023-05-01T21:26:50.830Z,98146.47
2023-05-01T21:28:53.826Z,98149.56
2023-05-01T21:30:56.909Z,98142.19
2023-05-01T21:33:00.305Z,98147.00
2023-05-01T21:35:03.860Z,98154.41
2023-05-01T21:37:09.214Z,98152.00
2023-05-01T21:39:12.496Z,98154.19
2023-05-01T21:41:16.939Z,98144.06
2023-05-01T21:43:20.647Z,98146.19
2023-05-01T21:45:23.817Z,98154.16
2023-05-01T21:47:27.967Z,98149.16
2023-05-01T21:49:31.204Z,98146.78
2023-05-01T21:51:34.247Z,98156.69
2023-05-01T21:53:37.361Z,98155.13
2023-05-01T21:55:40.408Z,98156.22
2023-05-01T21:57:44.956Z,98162.53
2023-05-01T21:59:48.326Z,98164.19
2023-05-01T22:01:51.423Z,98160.13
2023-05-01T22:03:54.720Z,98170.28
2023-05-01T22:05:58.600Z,98167.19
2023-05-01T22:08:01.921Z,98173.59
2023-05-01T22:10:05.540Z,98163.47
2023-05-01T22:12:08.742Z,98170.75
2023-05-01T22:14:13.185Z,98180.72
2023-05-01T22:16:16.316Z,98174.66
2023-05-01T22:18:19.588Z,98177.50
2023-05-01T22:20:23.032Z,98172.72
2023-05-01T22:22:26.418Z,98167.97
2023-05-01T22:24:29.406Z,98168.41
2023-05-01T22:26:32.487Z,98162.34
2023-05-01T22:28:35.965Z,98172.09
2023-05-01T22:30:40.565Z,98172.31
2023-05-01T22:32:43.732Z,98175.19
2023-05-01T22:34:46.791Z,98184.41
2023-05-01T22:36:49.847Z,98183.53
2023-05-01T22:38:52.836Z,98173.91
2023-05-01T22:40:55.865Z,98181.56
2023-05-01T22:42:59.007Z,98180.88
2023-05-01T22:45:02.092Z,98186.53
2023-05-01T22:47:07.171Z,98188.22
2023-05-01T22:49:10.263Z,98192.47
2023-05-01T22:51:13.315Z,98200.31
2023-05-01T22:53:16.520Z,98198.91
2023-05-01T22:55:19.565Z,98204.34
2023-05-01T22:57:22.800Z,98211.34
2023-05-01T22:59:25.979Z,98206.13
2023-05-01T23:01:29.286Z,98209.59
2023-05-01T23:03:35.198Z,98214.19
2023-05-01T23:05:40.314Z,98207.53
2023-05-01T23:07:44.038Z,98208.78
2023-05-01T23:09:47.840Z,98207.97
2023-05-01T23:11:51.045Z,98220.31
2023-05-01T23:13:54.085Z,98216.13
2023-05-01T23:15:57.463Z,98214.47
2023-05-01T23:18:00.692Z,98219.09
2023-05-01T23:20:08.006Z,98219.19
2023-05-01T23:22:13.075Z,98222.84
2023-05-01T23:24:18.554Z,98219.53
2023-05-01T23:26:26.005Z,98224.97
2023-05-01T23:28:29.948Z,98218.06
2023-05-01T23:30:33.085Z,98212.94
2023-05-01T23:32:36.192Z,98204.38
2023-05-01T23:34:40.054Z,98211.28
2023-05-01T23:36:46.092Z,98219.34
2023-05-01T23:38:49.118Z,98214.13
2023-05-01T23:40:52.329Z,98219.34
2023-05-01T23:42:56.000Z,98217.88
2023-05-01T23:44:59.158Z,98207.75
2023-05-01T23:47:02.327Z,98216.41
2023-05-01T23:49:05.698Z,98208.69
2023-05-01T23:51:08.951Z,98202.88
2023-05-01T23:53:13.434Z,98210.09
2023-05-01T23:55:16.713Z,98202.56
2023-05-01T23:57:19.667Z,98203.72
2023-05-01T23:59:22.669Z,98198.00
